createdAt,value
2022-07-29T00:02:14.370Z,44.66
2022-07-29T00:04:45.031Z,45.10
2022-07-29T00:07:15.509Z,45.23
2022-07-29T00:09:52.102Z,45.09
2022-07-29T00:12:25.658Z,45.02
2022-07-29T00:14:58.759Z,45.02
2022-07-29T00:17:29.420Z,45.07
2022-07-29T00:20:00.165Z,45.24
2022-07-29T00:22:30.779Z,45.36
2022-07-29T00:25:01.265Z,45.51
2022-07-29T00:27:31.784Z,45.61
2022-07-29T00:30:02.437Z,45.72
2022-07-29T00:32:33.251Z,45.81
2022-07-29T00:35:21.388Z,45.81
2022-07-29T00:37:52.095Z,45.77
2022-07-29T00:40:23.589Z,46.13
2022-07-29T00:42:55.129Z,46.38
2022-07-29T00:45:25.954Z,46.67
2022-07-29T00:47:56.533Z,46.99
2022-07-29T00:50:27.695Z,47.24
2022-07-29T00:52:56.922Z,47.84
2022-07-29T00:55:29.091Z,48.12
2022-07-29T00:58:00.565Z,48.30
2022-07-29T01:00:32.448Z,48.44
2022-07-29T01:03:03.067Z,48.79
2022-07-29T01:05:48.528Z,49.05
2022-07-29T01:08:23.937Z,49.44
2022-07-29T01:10:55.287Z,49.58
2022-07-29T01:13:27.580Z,49.58
2022-07-29T01:16:06.202Z,49.81
2022-07-29T01:18:41.432Z,50.29
2022-07-29T01:21:42.368Z,50.13
2022-07-29T01:24:32.374Z,50.56
2022-07-29T01:27:16.320Z,50.94
2022-07-29T01:29:56.174Z,51.21
2022-07-29T01:32:31.611Z,51.07
2022-07-29T01:35:08.738Z,51.07
2022-07-29T01:37:45.148Z,51.54
2022-07-29T01:40:24.124Z,51.87
2022-07-29T01:42:57.722Z,52.21
2022-07-29T01:45:35.423Z,52.43
2022-07-29T01:48:11.167Z,52.62
2022-07-29T01:50:49.480Z,52.98
2022-07-29T01:53:27.899Z,53.44
2022-07-29T01:56:11.083Z,53.80
2022-07-29T01:58:45.853Z,54.20
2022-07-29T02:01:18.328Z,54.58
2022-07-29T02:03:50.063Z,54.64
2022-07-29T02:06:24.694Z,54.36
2022-07-29T02:08:57.926Z,54.39
2022-07-29T02:11:29.274Z,54.38
2022-07-29T02:14:01.929Z,55.14
2022-07-29T02:16:38.402Z,55.70
2022-07-29T02:19:11.942Z,56.17
2022-07-29T02:21:44.246Z,56.56
2022-07-29T02:24:16.967Z,56.88
2022-07-29T02:26:49.800Z,56.31
2022-07-29T02:29:23.845Z,56.88
2022-07-29T02:31:56.194Z,57.42
2022-07-29T02:34:27.611Z,57.70
2022-07-29T02:37:00.181Z,56.34
2022-07-29T02:39:33.287Z,55.50
2022-07-29T02:42:07.458Z,54.78
2022-07-29T02:44:38.906Z,54.10
2022-07-29T02:47:14.875Z,53.34
2022-07-29T02:49:55.003Z,52.70
2022-07-29T02:52:33.795Z,52.62
2022-07-29T02:55:11.955Z,52.57
2022-07-29T02:57:53.971Z,53.23
2022-07-29T03:00:29.686Z,54.34
2022-07-29T03:03:05.261Z,54.11
2022-07-29T03:05:36.514Z,53.89
2022-07-29T03:08:11.881Z,53.49
2022-07-29T03:10:45.467Z,52.50
2022-07-29T03:13:16.890Z,51.83
2022-07-29T03:15:48.651Z,51.25
2022-07-29T03:18:19.887Z,51.10
2022-07-29T03:20:49.023Z,51.04
2022-07-29T03:23:25.107Z,51.02
2022-07-29T03:25:56.444Z,51.08
2022-07-29T03:28:29.246Z,50.92
2022-07-29T03:30:59.872Z,51.14
2022-07-29T03:33:31.359Z,51.21
2022-07-29T03:36:03.334Z,51.07
2022-07-29T03:38:38.166Z,51.00
2022-07-29T03:41:12.782Z,50.80
2022-07-29T03:43:49.241Z,50.98
2022-07-29T03:46:24.019Z,50.83
2022-07-29T03:48:59.127Z,51.02
2022-07-29T03:51:33.454Z,51.24
2022-07-29T03:54:09.846Z,52.23
2022-07-29T03:56:44.610Z,53.19
2022-07-29T03:59:17.596Z,53.03
2022-07-29T04:01:49.939Z,52.62
2022-07-29T04:04:20.736Z,52.66
2022-07-29T04:06:51.389Z,53.14
2022-07-29T04:09:22.098Z,54.07
2022-07-29T04:12:01.930Z,54.47
2022-07-29T04:14:35.413Z,55.50
2022-07-29T04:17:07.359Z,54.88
2022-07-29T04:19:37.954Z,55.13
2022-07-29T04:22:08.457Z,54.39
2022-07-29T04:24:41.823Z,54.74
2022-07-29T04:27:14.919Z,56.03
2022-07-29T04:29:56.389Z,56.25
2022-07-29T04:32:28.303Z,56.81
2022-07-29T04:34:59.916Z,56.86
2022-07-29T04:37:30.359Z,56.96
2022-07-29T04:40:00.963Z,56.91
2022-07-29T04:42:31.403Z,57.67
2022-07-29T04:45:02.569Z,58.15
2022-07-29T04:47:33.315Z,58.50
2022-07-29T04:50:04.353Z,58.75
2022-07-29T04:52:35.697Z,58.96
2022-07-29T04:55:07.975Z,58.96
2022-07-29T04:57:38.512Z,59.45
2022-07-29T05:00:12.223Z,59.43
2022-07-29T05:02:43.038Z,59.49
2022-07-29T05:05:13.643Z,59.75
2022-07-29T05:07:45.853Z,59.76
2022-07-29T05:10:16.532Z,59.85
2022-07-29T05:12:47.401Z,60.10
2022-07-29T05:15:18.639Z,60.02
2022-07-29T05:17:47.693Z,59.73
2022-07-29T05:20:19.415Z,59.80
2022-07-29T05:22:52.675Z,60.06
2022-07-29T05:25:23.583Z,60.27
2022-07-29T05:28:17.594Z,60.50
2022-07-29T05:30:50.483Z,60.60
2022-07-29T05:33:34.793Z,60.02
2022-07-29T05:36:09.661Z,60.05
2022-07-29T05:42:09.689Z,56.61
2022-07-29T05:44:41.898Z,54.80
2022-07-29T05:47:12.916Z,53.62
2022-07-29T05:49:43.654Z,53.81
2022-07-29T05:52:14.752Z,53.70
2022-07-29T05:54:45.866Z,53.64
2022-07-29T05:57:21.212Z,53.07
2022-07-29T05:59:52.712Z,52.92
2022-07-29T06:02:23.386Z,52.86
2022-07-29T06:04:53.973Z,52.77
2022-07-29T06:07:24.849Z,52.79
2022-07-29T06:09:55.596Z,52.88
2022-07-29T06:12:26.220Z,53.19
2022-07-29T06:14:57.635Z,53.37
2022-07-29T06:17:28.453Z,53.28
2022-07-29T06:19:59.219Z,53.70
2022-07-29T06:22:29.872Z,53.79
2022-07-29T06:25:00.456Z,54.20
2022-07-29T06:27:31.224Z,54.40
2022-07-29T06:30:02.676Z,54.37
2022-07-29T06:32:33.267Z,53.82
2022-07-29T06:35:36.982Z,54.00
2022-07-29T06:37:55.396Z,53.84
2022-07-29T06:40:48.254Z,53.30
2022-07-29T06:43:19.004Z,53.20
2022-07-29T06:45:49.738Z,52.43
2022-07-29T06:48:20.509Z,52.12
2022-07-29T06:50:51.122Z,51.85
2022-07-29T06:53:23.211Z,51.94
2022-07-29T06:55:54.031Z,51.55
2022-07-29T06:58:24.735Z,50.74
2022-07-29T07:01:04.387Z,50.44
2022-07-29T07:03:35.806Z,50.34
2022-07-29T07:06:06.534Z,50.26
2022-07-29T07:08:37.724Z,50.55
2022-07-29T07:11:09.415Z,50.97
2022-07-29T07:13:40.162Z,51.51
2022-07-29T07:16:10.843Z,51.42
2022-07-29T07:18:41.693Z,51.83
2022-07-29T07:21:12.668Z,51.89
2022-07-29T07:23:50.117Z,51.79
2022-07-29T07:26:20.782Z,52.00
2022-07-29T07:28:51.309Z,52.12
2022-07-29T07:31:22.138Z,51.58
2022-07-29T07:33:54.295Z,51.03
2022-07-29T07:36:25.558Z,51.38
2022-07-29T07:38:56.277Z,51.49
2022-07-29T07:41:26.806Z,50.94
2022-07-29T07:44:03.435Z,50.53
2022-07-29T07:46:33.998Z,50.04
2022-07-29T07:49:04.827Z,49.93
2022-07-29T07:51:34.267Z,50.20
2022-07-29T07:54:04.996Z,49.61
2022-07-29T07:56:35.580Z,49.72
2022-07-29T07:59:06.172Z,49.76
2022-07-29T08:01:55.254Z,49.88
2022-07-29T08:04:28.900Z,49.97
2022-07-29T08:07:00.526Z,50.16
2022-07-29T08:09:31.930Z,50.15
2022-07-29T08:12:04.740Z,50.45
2022-07-29T08:14:35.709Z,50.28
2022-07-29T08:17:05.082Z,49.99
2022-07-29T08:19:35.841Z,50.17
2022-07-29T08:22:06.821Z,49.83
2022-07-29T08:24:49.821Z,49.79
2022-07-29T08:27:42.588Z,49.53
2022-07-29T08:30:13.056Z,49.41
2022-07-29T08:32:53.738Z,49.55
2022-07-29T08:35:26.025Z,49.40
2022-07-29T08:37:57.907Z,49.46
2022-07-29T08:40:32.553Z,49.85
2022-07-29T08:43:08.410Z,49.94
2022-07-29T08:45:48.573Z,49.51
2022-07-29T08:48:22.277Z,49.54
2022-07-29T08:50:58.890Z,49.44
2022-07-29T08:53:31.913Z,49.42
2022-07-29T08:56:03.584Z,49.01
2022-07-29T08:58:38.304Z,48.49
2022-07-29T09:01:13.899Z,48.78
2022-07-29T09:03:48.441Z,47.98
2022-07-29T09:06:22.114Z,48.01
2022-07-29T09:08:53.281Z,47.72
2022-07-29T09:11:23.967Z,47.20
2022-07-29T09:13:55.124Z,46.92
2022-07-29T09:16:50.894Z,45.96
2022-07-29T09:19:26.619Z,46.85
2022-07-29T09:22:03.752Z,46.83
2022-07-29T09:24:48.332Z,47.03
2022-07-29T09:27:31.344Z,46.97
2022-07-29T09:30:06.968Z,46.25
2022-07-29T09:32:59.543Z,45.71
2022-07-29T09:35:32.080Z,45.60
2022-07-29T09:38:13.785Z,45.26
2022-07-29T09:40:57.682Z,44.74
2022-07-29T09:43:33.032Z,44.36
2022-07-29T09:46:15.947Z,44.35
2022-07-29T09:48:46.676Z,44.69
2022-07-29T09:51:37.636Z,44.50
2022-07-29T09:54:26.677Z,44.64
2022-07-29T09:56:58.299Z,44.36
2022-07-29T09:59:29.307Z,43.85
2022-07-29T10:02:00.317Z,43.98
2022-07-29T10:04:42.689Z,43.86
2022-07-29T10:07:13.295Z,43.91
2022-07-29T10:09:57.557Z,43.22
2022-07-29T10:12:35.916Z,43.01
2022-07-29T10:15:08.089Z,42.82
2022-07-29T10:17:41.880Z,41.34
2022-07-29T10:20:16.467Z,40.51
2022-07-29T10:22:53.566Z,40.35
2022-07-29T10:25:25.478Z,40.45
2022-07-29T10:27:56.939Z,39.39
2022-07-29T10:30:29.094Z,39.02
2022-07-29T10:33:17.555Z,38.69
2022-07-29T10:36:10.649Z,38.10
2022-07-29T10:38:54.021Z,38.84
2022-07-29T10:41:49.755Z,37.91
2022-07-29T10:44:23.865Z,37.71
2022-07-29T10:46:55.411Z,36.86
2022-07-29T10:49:27.823Z,36.12
2022-07-29T10:52:06.667Z,36.98
2022-07-29T10:54:53.617Z,35.55
2022-07-29T10:57:57.728Z,35.90
2022-07-29T11:00:34.979Z,34.93
2022-07-29T11:03:10.452Z,34.16
2022-07-29T11:06:08.793Z,33.11
2022-07-29T11:08:39.566Z,33.32
2022-07-29T11:11:44.059Z,34.02
2022-07-29T11:14:56.739Z,35.02
2022-07-29T11:17:37.572Z,35.73
2022-07-29T11:20:41.357Z,35.01
2022-07-29T11:23:33.650Z,34.18
2022-07-29T11:26:25.566Z,34.38
2022-07-29T11:29:03.326Z,33.20
2022-07-29T11:31:39.834Z,34.22
2022-07-29T11:34:28.140Z,33.41
2022-07-29T11:37:28.117Z,33.14
2022-07-29T11:40:18.302Z,33.61
2022-07-29T11:42:52.796Z,33.97
2022-07-29T11:45:46.721Z,33.46
2022-07-29T11:48:28.432Z,32.72
2022-07-29T11:51:01.673Z,32.50
2022-07-29T11:53:35.249Z,31.81
2022-07-29T11:56:10.348Z,31.91
2022-07-29T11:58:41.368Z,32.24
2022-07-29T12:01:19.438Z,32.01
2022-07-29T12:03:53.700Z,32.16
2022-07-29T12:06:24.262Z,31.67
2022-07-29T12:08:54.925Z,31.41
2022-07-29T12:11:25.544Z,30.75
2022-07-29T12:13:56.661Z,30.83
2022-07-29T12:16:38.408Z,30.24
2022-07-29T12:19:12.024Z,28.96
2022-07-29T12:21:54.036Z,28.56
2022-07-29T12:24:44.916Z,29.01
2022-07-29T12:27:29.534Z,28.73
2022-07-29T12:30:03.573Z,28.85
2022-07-29T12:32:39.625Z,29.21
2022-07-29T12:35:12.057Z,27.50
2022-07-29T12:37:45.724Z,27.57
2022-07-29T12:40:20.529Z,27.56
2022-07-29T12:43:15.061Z,27.63
2022-07-29T12:45:48.386Z,28.54
2022-07-29T12:48:34.848Z,28.74
2022-07-29T12:51:10.605Z,28.73
2022-07-29T12:53:41.649Z,29.03
2022-07-29T12:56:41.668Z,28.99
2022-07-29T12:59:19.170Z,29.61
2022-07-29T13:01:51.427Z,29.54
2022-07-29T13:04:32.190Z,29.58
2022-07-29T13:07:06.951Z,29.03
2022-07-29T13:09:46.408Z,28.26
2022-07-29T13:12:18.431Z,28.14
2022-07-29T13:14:50.903Z,27.82
2022-07-29T13:17:24.229Z,27.87
2022-07-29T13:20:06.629Z,27.65
2022-07-29T13:22:39.521Z,27.09
2022-07-29T13:25:11.627Z,26.81
2022-07-29T13:27:42.340Z,25.98
2022-07-29T13:30:14.846Z,25.57
2022-07-29T13:32:45.684Z,24.62
2022-07-29T13:35:16.571Z,24.14
2022-07-29T13:37:47.166Z,24.39
2022-07-29T13:40:19.966Z,24.57
2022-07-29T13:42:50.505Z,24.51
2022-07-29T13:45:21.220Z,25.39
2022-07-29T13:47:51.819Z,25.71
2022-07-29T13:50:22.327Z,26.45
2022-07-29T13:52:53.643Z,27.24
2022-07-29T13:55:24.692Z,27.49
2022-07-29T13:57:55.157Z,28.69
2022-07-29T14:00:27.190Z,27.87
2022-07-29T14:02:57.911Z,27.56
2022-07-29T14:05:28.693Z,28.50
2022-07-29T14:07:59.213Z,28.51
2022-07-29T14:10:30.002Z,28.52
2022-07-29T14:13:00.684Z,29.05
2022-07-29T14:15:29.930Z,29.29
2022-07-29T14:18:00.567Z,29.64
2022-07-29T14:20:31.764Z,30.01
2022-07-29T14:23:03.465Z,30.39
2022-07-29T14:25:35.831Z,31.18
2022-07-29T14:28:10.003Z,30.40
2022-07-29T14:30:42.193Z,30.11
2022-07-29T14:33:12.837Z,29.77
2022-07-29T14:35:41.854Z,29.89
2022-07-29T14:38:12.561Z,29.87
2022-07-29T14:40:43.806Z,30.18
2022-07-29T14:43:14.795Z,30.30
2022-07-29T14:45:45.281Z,30.65
2022-07-29T14:48:14.271Z,30.69
2022-07-29T14:50:44.891Z,30.62
2022-07-29T14:53:15.468Z,29.88
2022-07-29T14:55:44.450Z,28.19
2022-07-29T14:58:16.664Z,28.36
2022-07-29T15:00:47.473Z,28.28
2022-07-29T15:03:24.027Z,27.73
2022-07-29T15:05:55.150Z,27.25
2022-07-29T15:08:26.360Z,27.79
2022-07-29T15:10:58.619Z,28.00
2022-07-29T15:13:30.540Z,28.39
2022-07-29T15:16:01.382Z,27.48
2022-07-29T15:18:32.011Z,28.07
2022-07-29T15:21:03.280Z,28.00
2022-07-29T15:23:34.071Z,28.44
2022-07-29T15:26:04.614Z,28.35
2022-07-29T15:28:35.332Z,28.37
2022-07-29T15:31:05.927Z,28.09
2022-07-29T15:33:36.505Z,28.65
2022-07-29T15:36:06.298Z,28.73
2022-07-29T15:38:41.623Z,29.04
2022-07-29T15:41:15.759Z,29.49
2022-07-29T15:43:48.564Z,30.07
2022-07-29T15:46:38.096Z,29.92
2022-07-29T15:49:09.550Z,29.97
2022-07-29T15:51:40.219Z,30.54
2022-07-29T15:54:09.533Z,30.67
2022-07-29T15:56:40.114Z,30.79
2022-07-29T15:59:09.078Z,30.88
2022-07-29T16:01:42.472Z,30.94
2022-07-29T16:04:13.716Z,31.23
2022-07-29T16:06:42.941Z,31.23
2022-07-29T16:09:14.377Z,31.56
2022-07-29T16:11:46.420Z,31.44
2022-07-29T16:14:17.566Z,31.73
2022-07-29T16:16:48.497Z,31.98
2022-07-29T16:19:19.093Z,32.76
2022-07-29T16:21:49.640Z,33.04
2022-07-29T16:24:20.162Z,33.42
2022-07-29T16:26:53.526Z,34.16
2022-07-29T16:29:24.043Z,34.54
2022-07-29T16:31:54.704Z,34.43
2022-07-29T16:34:25.328Z,34.27
2022-07-29T16:36:55.990Z,35.07
2022-07-29T16:39:24.970Z,38.27
2022-07-29T16:41:59.879Z,40.80
2022-07-29T16:44:31.609Z,43.24
2022-07-29T16:47:01.242Z,47.34
2022-07-29T16:49:33.338Z,52.00
2022-07-29T16:52:03.786Z,53.82
2022-07-29T16:54:34.253Z,56.10
2022-07-29T16:57:04.871Z,59.19
2022-07-29T16:59:35.470Z,63.22
2022-07-29T17:02:14.285Z,66.42
2022-07-29T17:04:47.306Z,68.65
2022-07-29T17:07:17.761Z,71.10
2022-07-29T17:09:51.538Z,70.95
2022-07-29T17:12:24.555Z,71.70
2022-07-29T17:14:55.112Z,73.24
2022-07-29T17:17:38.662Z,74.35
2022-07-29T17:20:12.096Z,75.59
2022-07-29T17:22:48.454Z,77.26
2022-07-29T17:25:21.051Z,77.70
2022-07-29T17:27:51.893Z,78.19
2022-07-29T17:30:22.616Z,77.86
2022-07-29T17:32:53.874Z,78.04
2022-07-29T17:35:42.263Z,79.31
2022-07-29T17:38:12.732Z,80.40
2022-07-29T17:40:43.475Z,80.33
2022-07-29T17:43:13.964Z,80.97
2022-07-29T17:45:49.407Z,81.53
2022-07-29T17:48:22.710Z,83.14
2022-07-29T17:50:55.431Z,83.72
2022-07-29T17:53:25.919Z,83.75
2022-07-29T17:55:58.205Z,84.87
2022-07-29T17:58:29.014Z,85.81
2022-07-29T18:00:59.679Z,86.11
2022-07-29T18:03:30.319Z,85.59
2022-07-29T18:06:01.444Z,85.61
2022-07-29T18:08:30.454Z,85.19
2022-07-29T18:11:01.148Z,84.48
2022-07-29T18:13:31.788Z,85.06
2022-07-29T18:16:02.392Z,85.16
2022-07-29T18:18:32.865Z,85.39
2022-07-29T18:21:03.389Z,85.25
2022-07-29T18:23:34.175Z,86.30
2022-07-29T18:26:04.810Z,85.96
2022-07-29T18:28:35.488Z,85.27
2022-07-29T18:31:06.251Z,84.80
2022-07-29T18:33:41.816Z,85.07
2022-07-29T18:36:12.358Z,84.53
2022-07-29T18:38:43.455Z,84.84
2022-07-29T18:41:12.504Z,84.10
2022-07-29T18:43:43.089Z,84.03
2022-07-29T18:46:13.747Z,84.30
2022-07-29T18:48:44.837Z,83.84
2022-07-29T18:51:15.434Z,83.62
2022-07-29T18:53:46.905Z,83.67
2022-07-29T18:56:17.428Z,83.34
2022-07-29T18:58:47.769Z,83.51
2022-07-29T19:01:18.363Z,83.43
2022-07-29T19:03:50.979Z,84.31
2022-07-29T19:06:25.362Z,85.13
2022-07-29T19:08:56.970Z,84.85
2022-07-29T19:11:28.310Z,85.61
2022-07-29T19:13:58.919Z,85.73
2022-07-29T19:16:29.711Z,86.77
2022-07-29T19:19:01.496Z,88.15
2022-07-29T19:21:32.521Z,87.64
2022-07-29T19:24:07.707Z,87.49
2022-07-29T19:26:46.591Z,87.35
2022-07-29T19:29:17.643Z,87.04
2022-07-29T19:31:48.735Z,86.99
2022-07-29T19:34:17.906Z,87.54
2022-07-29T19:36:50.983Z,87.98
2022-07-29T19:39:31.917Z,88.45
2022-07-29T19:42:08.509Z,88.24
2022-07-29T19:44:39.488Z,88.48
2022-07-29T19:47:10.360Z,89.24
2022-07-29T19:49:50.800Z,88.83
2022-07-29T19:52:21.741Z,89.19
2022-07-29T19:54:52.797Z,89.31
2022-07-29T19:57:24.230Z,89.56
2022-07-29T19:59:56.413Z,89.61
2022-07-29T20:02:27.408Z,89.18
2022-07-29T20:04:58.175Z,89.15
2022-07-29T20:07:27.932Z,89.25
2022-07-29T20:09:58.597Z,89.57
2022-07-29T20:12:29.234Z,89.58
2022-07-29T20:15:03.383Z,89.75
2022-07-29T20:17:39.702Z,90.49
2022-07-29T20:20:12.679Z,91.01
2022-07-29T20:22:44.538Z,91.00
2022-07-29T20:25:15.481Z,91.02
2022-07-29T20:27:46.477Z,91.17
2022-07-29T20:30:17.745Z,91.18
2022-07-29T20:32:49.056Z,90.82
2022-07-29T20:35:20.262Z,90.82
2022-07-29T20:37:52.519Z,90.74
2022-07-29T20:40:30.905Z,90.31
2022-07-29T20:43:01.739Z,89.56
2022-07-29T20:45:32.542Z,88.73
2022-07-29T20:48:03.205Z,89.19
2022-07-29T20:50:33.969Z,89.30
2022-07-29T20:53:04.953Z,89.69
2022-07-29T20:55:35.645Z,89.97
2022-07-29T20:58:06.309Z,89.93
2022-07-29T21:00:37.028Z,90.12
2022-07-29T21:03:07.846Z,90.35
2022-07-29T21:05:39.367Z,90.99
2022-07-29T21:08:13.643Z,91.22
2022-07-29T21:10:44.282Z,91.29
2022-07-29T21:13:14.986Z,91.54
2022-07-29T21:15:49.213Z,91.08
2022-07-29T21:18:30.447Z,91.41
2022-07-29T21:21:05.300Z,91.97
2022-07-29T21:23:35.986Z,92.17
2022-07-29T21:26:12.518Z,93.21
2022-07-29T21:28:43.998Z,94.11
2022-07-29T21:31:16.825Z,94.53
2022-07-29T21:33:48.745Z,95.30
2022-07-29T21:36:47.273Z,95.34
2022-07-29T21:39:10.123Z,96.23
2022-07-29T21:41:40.684Z,97.10
2022-07-29T21:44:11.262Z,97.56
2022-07-29T21:46:41.839Z,97.77
2022-07-29T21:49:12.466Z,98.06
2022-07-29T21:51:43.153Z,98.18
2022-07-29T21:54:13.705Z,97.99
2022-07-29T21:56:44.700Z,98.22
2022-07-29T21:59:22.041Z,98.22
2022-07-29T22:01:52.958Z,98.22
2022-07-29T22:04:23.764Z,98.11
2022-07-29T22:06:54.491Z,97.93
2022-07-29T22:09:25.071Z,97.68
2022-07-29T22:11:56.013Z,97.63
2022-07-29T22:14:26.500Z,97.53
2022-07-29T22:16:58.088Z,97.88
2022-07-29T22:19:29.955Z,98.02
2022-07-29T22:22:01.163Z,98.54
2022-07-29T22:24:31.964Z,98.43
2022-07-29T22:27:02.891Z,98.97
2022-07-29T22:29:33.652Z,99.15
2022-07-29T22:32:04.684Z,99.11
2022-07-29T22:34:37.790Z,99.72
2022-07-29T22:37:10.392Z,99.76
2022-07-29T22:39:41.072Z,99.85
2022-07-29T22:42:12.148Z,99.98
2022-07-29T22:44:41.587Z,99.99
2022-07-29T22:47:12.239Z,99.89
2022-07-29T22:49:43.100Z,99.90
2022-07-29T22:52:14.587Z,99.93
2022-07-29T22:54:45.604Z,99.75
2022-07-29T22:57:16.269Z,99.56
2022-07-29T22:59:46.901Z,99.76
2022-07-29T23:02:17.497Z,99.97
2022-07-29T23:04:48.491Z,99.97
2022-07-29T23:07:19.422Z,99.99
2022-07-29T23:09:50.302Z,100.00
2022-07-29T23:12:21.194Z,100.00
2022-07-29T23:14:51.660Z,100.00
2022-07-29T23:17:22.587Z,100.00
2022-07-29T23:19:53.657Z,100.00
2022-07-29T23:22:25.576Z,100.00
2022-07-29T23:24:56.203Z,100.00
2022-07-29T23:27:27.273Z,100.00
2022-07-29T23:29:57.940Z,100.00
2022-07-29T23:32:28.551Z,100.00
2022-07-29T23:34:59.171Z,100.00
2022-07-29T23:37:30.045Z,100.00
2022-07-29T23:40:01.098Z,100.00
2022-07-29T23:42:31.793Z,100.00
2022-07-29T23:45:02.806Z,100.00
2022-07-29T23:47:33.477Z,100.00
2022-07-29T23:50:04.172Z,100.00
2022-07-29T23:52:35.680Z,100.00
2022-07-29T23:55:37.015Z,100.00
2022-07-29T23:57:58.153Z,100.00
